Používaním stránok prevádzkovaných PROFIPILOT, s.r.o. súhlasíte s používaním cookies, ktoré nám pomáhajú zabezpečiť lepšie služby.OK

Briefing

MAPA | METAR | TAF | METEO SITUÁCIA
MAPA | METAR | TAF | METEO SITUÁCIA

Predpoveď na dnes

Oblačno až zamračené, miestami hmlisto. Spočiatku ojedinele aj zmenšená oblačnosť. Postupne miestami sneženie alebo snehové prehánky, v južnej polovici západného Slovenska v polohách do cca 400 m aj dážď so snehom alebo dážď. Najvyššia denná teplota -2 až 3, na juhozápade miestami do 6 st. Teplota na horách vo výške 1500 m okolo -6 st. Slabý, na západe postupne západný až severozápadný vietor 4 až 8 m/s (15 až 30 km/h), v nárazoch lokálne okolo 14 m/s (50 km/h). Predpokladané množstvo zrážok: do 5 mm / do 7 cm snehu

SHMÚ, OMPaV, MM 17.1.2018 11:57 SEČ

MAPA | METAR | TAF | METEO SITUÁCIA

TAF - Letisková predpoveď

17.01.2018 - 20:00 UTC

TAF LZSL 172000Z 1721/1806 33007KT 5000 -SN SCT012 OVC027
     TEMPO 1721/1800 34010KT 2500 SN SCT007 OVC018
     BECMG 1804/1806 15004KT 7000 NSW BKN030=
 TAF LZZI 172000Z 1721/1806 23006KT 9999 BKN035
     TEMPO 1721/1801 4000 -SN FEW017 OVC025
     TEMPO 1801/1806 1300 BR SCT003 BKN007=
 

17.01.2018 - 17:00 UTC

TAF LZIB 171700Z 1718/1818 30015KT 9999 SCT047
     TEMPO 1718/1800 31020G30KT
     TEMPO 1718/1721 -SHSN SCT038 BKN050
     BECMG 1808/1810 20013KT SCT034 BKN090
     TEMPO 1812/1816 5000 -RASN SCT012 BKN027 OVC047=
 TAF LZKZ 171700Z 1718/1818 03003KT 8000 OVC007
     TEMPO 1718/1722 2000 BR BKN004 OVC007
     PROB40 TEMPO 1722/1803 1200 -SN BKN005 OVC010
     BECMG 1805/1807 21007KT 7000 SCT008 SCT037
     BECMG 1815/1817 22012KT 3000 -SN BKN010 OVC040=
 TAF LZTT 171700Z 1718/1818 26008KT 9999 FEW020 SCT045
     TEMPO 1718/1804 2500 -SN BKN013 OVC033
     BECMG 1806/1808 24008KT 9999 FEW015 SCT043
     BECMG 1814/1816 27012KT 5000 -SN SCT024 BKN070=
 

17.01.2018 - 17:00 UTC

TAF LZSL 171700Z 1718/1803 33004KT 7000 SCT025 OVC035
     TEMPO 1718/1721 23002KT 2500 -SN SCT007 OVC028
     PROB40 TEMPO 1721/1800 4000 -SN=
 TAF LZPP 171700Z 1718/1803 32008KT 8000 BKN045
     TEMPO 1718/1721 VRB02KT 4000 -SN BKN035
     BECMG 1721/1723 35005KT 9999 SCT040=
 TAF LZZI 171700Z 1718/1803 25007KT 9999 BKN047
     TEMPO 1718/1722 2500 -SN SCT010 BKN035=
 

17.01.2018 - 11:00 UTC

TAF AMD LZKZ 171454Z 1714/1812 36005KT 9999 OVC008
     BECMG 1716/1718 23003KT 2000 BR BKN008 OVC017
     TEMPO 1721/1803 1200 SN BKN005 OVC010
     BECMG 1805/1807 21007KT 7000 SCT008 SCT037=
 

17.01.2018 - 14:00 UTC

TAF LZSL 171400Z 1715/1800 15003KT 7000 SCT010 OVC033
     TEMPO 1715/1719 23002KT 2400 -SN BKN007 OVC018
     BECMG 1719/1721 31008KT 9999 SCT012 SCT034=
 TAF LZPP 171400Z 1715/1800 13003KT 5000 BR OVC045
     BECMG 1715/1717 31012KT 9999 SCT025 BKN047
     TEMPO 1715/1717 32013G24KT 5000 -SHSN SCT025TCU BKN035=
 TAF LZZI 171400Z 1715/1800 24007KT 9999 FEW015 BKN037
     TEMPO 1715/1720 1500 -SN BKN010 OVC018=
 

17.01.2018 - 11:00 UTC

TAF AMD LZZI 171308Z 1713/1721 25006KT 7000 FEW009 BKN027
     TEMPO 1713/1716 1200 -SN BKN007 OVC016=
 

17.01.2018 - 11:00 UTC

TAF LZIB 171100Z 1712/1812 30015KT 9999 FEW017 BKN037
     TEMPO 1712/1718 31018G30KT 5000 -SHSNRA SCT015 BKN030
     TEMPO 1718/1800 31020G37KT -SHSN SCT018 SCT040
     BECMG 1808/1810 20013KT SCT034 BKN090=
 TAF LZKZ 171100Z 1712/1812 36005KT 2500 BR OVC006
     TEMPO 1712/1715 04005KT 1500 BR OVC003
     BECMG 1717/1719 23003KT 2000 BR BKN008 OVC017
     TEMPO 1721/1803 1200 SN BKN005 OVC010
     BECMG 1805/1807 21007KT 7000 SCT008 SCT037=
 TAF LZTT 171100Z 1712/1812 22005KT 9999 FEW010 SCT025
     BECMG 1715/1717 26006KT FEW005 BKN017 OVC040
     TEMPO 1718/1806 26012KT 1200 SN BKN003 OVC013
     BECMG 1806/1808 24008KT 9999 FEW008=
 

17.01.2018 - 11:00 UTC

TAF LZSL 171100Z 1712/1721 VRB02KT 7000 BKN010
     TEMPO 1712/1715 16003KT 4000 BR BKN008
     TEMPO 1715/1719 23002KT 2400 -SN SCT005 OVC010
     BECMG 1719/1721 31008KT 9999 SCT012 SCT034=
 TAF LZPP 171100Z 1712/1721 VRB02KT 2500 BR SCT005 BKN010
     BECMG 1713/1715 30010KT 9999 SCT015 BKN035
     TEMPO 1713/1717 32013G24KT 5000 -SHSN BKN020=
 TAF LZZI 171100Z 1712/1721 25006KT 7000 FEW009 BKN027
     TEMPO 1714/1720 2300 -SN BKN007 OVC016=
 

17.01.2018 - 05:00 UTC

TAF AMD LZKZ 170902Z 1709/1806 36007KT 2500 BR OVC006
     TEMPO 1711/1712 3500 BR OVC012
     TEMPO 1712/1715 04005KT 5000 BR BKN013
     BECMG 1717/1719 23003KT 2000 BR OVC004
     TEMPO 1721/1803 1200 SN BKN005 OVC010=
 

17.01.2018 - 05:00 UTC

TAF AMD LZTT 170837Z 1708/1806 25006KT 8000 FEW010 SCT025
     TEMPO 1708/1711 0200 FZFG BKN002
     BECMG 1715/1717 3000 -SN FEW005 BKN012 OVC040
     TEMPO 1718/1806 26012KT 1200 SN BR BKN003 OVC009=
 

17.01.2018 - 08:00 UTC

TAF LZSL 170800Z 1709/1718 VRB02KT 6000 FEW008 SCT020
     TEMPO 1709/1712 2000 BR BKN005
     BECMG 1711/1713 16003KT 5000 BR SCT009 BKN025 OVC090
     TEMPO 1713/1717 1400 SN SCT005 OVC011=
 TAF LZPP 170800Z 1709/1718 VRB02KT 0100 FZFG OVC001
     BECMG 1710/1712 2000 -SN BKN003 OVC023
     BECMG 1713/1715 30010KT 9999 SCT025 BKN090
     TEMPO 1713/1717 5000 -SHSN BKN020=
 TAF LZZI 170800Z 1709/1718 VRB02KT 5000 BR BKN018 OVC032
     TEMPO 1709/1712 24004KT 7000 SCT018 SCT035
     BECMG 1712/1714 23007KT 2300 -SN BKN007 OVC016=
 

17.01.2018 - 05:00 UTC

TAF AMD LZPP 170647Z 1706/1715 16004KT 3000 BR SCT003 OVC017
     TEMPO 1706/1709 35005KT 0100 FZFG OVC001
     TEMPO 1710/1712 2000 SN BR BKN005 OVC010
     BECMG 1713/1715 30008KT 9999 SCT025 BKN090=
 

17.01.2018 - 05:00 UTC

TAF LZIB 170500Z 1706/1806 29007KT 9999 FEW010 OVC030
     BECMG 1708/1710 FEW022 SCT045
     BECMG 1710/1712 30015KT
     TEMPO 1712/1722 31022G32KT 5000 SHRASN BKN027 FEW035TCU
     TEMPO 1722/1806 -SHSN SCT018 BKN040=
 TAF LZKZ 170500Z 1706/1806 22006KT 4000 BR SCT004 OVC015
     TEMPO 1706/1708 VRB02KT 1200 BCFG BKN002
     BECMG 1710/1712 04005KT 7000 SCT012 BKN030
     BECMG 1717/1719 -SN OVC022
     TEMPO 1719/1804 2000 SN BR BKN005 OVC010=
 TAF LZTT 170500Z 1706/1806 27010KT 9999 FEW010 BKN025
     TEMPO 1706/1709 5000 -SN OVC015
     BECMG 1709/1711 25006KT SCT020 BKN060
     BECMG 1716/1718 4000 -SN FEW005 BKN012 OVC040
     TEMPO 1718/1806 26012KT 1200 SN BR BKN003 OVC009=
 

17.01.2018 - 05:00 UTC

TAF LZSL 170500Z 1706/1715 VRB02KT 4000 BR FEW008 OVC015
     TEMPO 1706/1708 -SN
     BECMG 1708/1710 7000 FEW012 BKN025
     BECMG 1712/1714 15006KT 2000 SN BR SCT005 OVC011=
 TAF LZPP 170500Z 1706/1715 13006KT 5000 BR FEW006 OVC017
     PROB40 TEMPO 1706/1708 VRB02KT 1300 -FZDZ BR OVC005
     TEMPO 1710/1715 2000 SN BR SCT004 OVC010
     BECMG 1713/1715 30008KT=
 TAF LZZI 170500Z 1706/1715 29007KT 6000 -SN SCT013 OVC025
     PROB40 TEMPO 1706/1708 VRB02KT 1200 BCFG BKN003
     BECMG 1712/1714 23006KT 2300 SN BR BKN007 OVC016=
 

17.01.2018 - 02:00 UTC

TAF LZSL 170200Z 1703/1712 VRB02KT 4000 BR SCT004 OVC017
     PROB40 TEMPO 1703/1706 1700 -SN BR OVC010
     BECMG 1707/1709 16007KT 7000 FEW012 BKN030=
 TAF LZZI 170200Z 1703/1712 24006KT 9999 OVC020
     TEMPO 1703/1708 23010KT 4000 -SN BR SCT005 OVC013
     PROB40 TEMPO 1703/1707 1200 BR BKN002
     BECMG 1709/1711 BKN030=
 
MAPA | METAR | TAF | METEO SITUÁCIA

METAR - Letisková meteo správa

Letisková meteorologická správa METAR

Meteorologické informácie z ďalších profesionálnych meteorologických staníc SHMÚ zobrazené v tvare zodpovedajúcom pravidlám kódovania správ METAR sú uvedené v položke „METSYN Informácie o správe METAR

17.01.2018 - 20:00 UTC

METAR LZIB 172000Z 29015KT CAVOK 03/M04 Q1004 R88/290295=
 METAR LZKZ 172000Z 02005KT 9000 BKN006 M02/M04 Q0999=
 METAR LZPP 172000Z 28009KT 9999 FEW048 02/M02 Q1004=
 METAR LZSL 172000Z 34005KT 300V010 9999 SCT040 M01/M03 Q1001=
 METAR LZTT 172000Z VRB04KT 9999 FEW008 SCT020 BKN053 M02/M05 Q0996=
 METAR LZZI 172000Z 25007KT 9999 -SN BKN033 BKN040 00/M02 Q1002=
 

17.01.2018 - 19:30 UTC

METAR LZIB 171930Z 29014KT CAVOK 03/M03 Q1004 R88/290295=
 METAR LZKZ 171930Z 04005KT 8000 OVC006 M02/M03 Q0999=
 METAR LZPP 171930Z 31008KT 9999 -SN SCT048 BKN060 01/M01 Q1003=
 METAR LZSL 171930Z VRB01KT 9999 BKN040 M03/M04 Q1000=
 METAR LZTT 171930Z 25015KT 210V280 9999 -SN FEW020 BKN060 M01/M06
 Q0996=
 METAR LZZI 171930Z 24006KT 9999 BKN033 M00/M02 Q1001=
 

17.01.2018 - 20:00 UTC

METAR LZMC 172000Z 30008KT CAVOK 01/M03 Q1005=
 METAR LZPW 172000Z 00000KT 4000 BR OVC004 M03/M04
 Q0999=
 
načítavam...